Flight Track Log - Related Links

Times and Time Zones

All times are in EDT time to prevent confusion due to time zone crossing. See the UAL1444 flight status page for this flight to view local times or setup timezone preferences in your user account.

Time Position Orientation Groundspeed Altitude Reporting Facility
EDT Latitude Longitude Course Direction KTS MPH feet Rate Location/Type
Mon 11:11:27 AM 40.6715 -74.1818 206° Southwest 186 214 400  Level FlightAware ADS-B
Mon 11:11:35 AM 40.6651 -74.1856 204° Southwest 187 215 800 2,842 Climbing FlightAware ADS-B
Mon 11:11:46 AM 40.6555 -74.1876 189° South 188 216 1,300 1,846 Climbing FlightAware ADS-B
Mon 11:12:01 AM 40.6413 -74.1870 178° South 208 239 1,600 1,364 Climbing FlightAware ADS-B
Mon 11:12:08 AM 40.6349 -74.1882 188° South 212 244 1,800 1,800 Climbing FlightAware ADS-B
Mon 11:12:11 AM 40.6314 -74.1896 197° South 212 244 1,900 2,000 Climbing FlightAware ADS-B
Mon 11:12:20 AM 40.6245 -74.1947 209° Southwest 211 243 2,200 2,800 Climbing FlightAware ADS-B
Mon 11:12:26 AM 40.6203 -74.2000 224° Southwest 207 238 2,600 2,870 Climbing FlightAware ADS-B
Mon 11:12:43 AM 40.6141 -74.2197 247° West 205 236 3,300 2,087 Climbing FlightAware ADS-B
Mon 11:12:49 AM 40.6142 -74.2276 271° West 218 251 3,400 1,385 Climbing FlightAware ADS-B
Mon 11:12:56 AM 40.6158 -74.2367 283° West 232 267 3,600 1,714 Climbing FlightAware ADS-B
Mon 11:13:10 AM 40.6212 -74.2566 290° West 250 288 4,000 2,195 Climbing FlightAware ADS-B
Mon 11:13:37 AM 40.6332 -74.2966 292° West 261 300 5,100 2,857 Climbing FlightAware ADS-B
Mon 11:13:52 AM 40.6402 -74.3188 293° West 258 297 6,000 3,000 Climbing FlightAware ADS-B
Mon 11:14:09 AM 40.6477 -74.3424 293° West 263 303 6,700 2,667 Climbing FlightAware ADS-B
Mon 11:14:10 AM 40.6484 -74.3447 292° West 258 297 6,800 2,625 Climbing FlightAware ADS-B
Mon 11:14:25 AM 40.6556 -74.3670 293° West 266 306 7,400 2,438 Climbing FlightAware ADS-B
Mon 11:14:42 AM 40.6635 -74.3919 293° West 272 313 8,100 2,625 Climbing FlightAware ADS-B
Mon 11:14:57 AM 40.6711 -74.4154 293° West 276 318 8,800 2,600 Climbing FlightAware ADS-B
Mon 11:15:12 AM 40.6787 -74.4389 293° West 279 321 9,400 2,267 Climbing FlightAware ADS-B
Mon 11:15:42 AM 40.6944 -74.4860 294° West 288 331 10,500 1,600 Climbing FlightAware ADS-B
Mon 11:16:12 AM 40.7121 -74.5379 294° West 322 371 11,000 1,180 Climbing FlightAware ADS-B
Mon 11:16:43 AM 40.7314 -74.5954 294° West 348 400 11,700 1,574 Climbing FlightAware ADS-B
Mon 11:17:13 AM 40.7514 -74.6552 294° West 362 417 12,600 1,700 Climbing FlightAware ADS-B
Mon 11:17:43 AM 40.7722 -74.7183 294° West 380 437 13,400 1,700 Climbing FlightAware ADS-B
Mon 11:18:13 AM 40.7937 -74.7833 294° West 391 450 14,300 1,869 Climbing FlightAware ADS-B
Mon 11:18:44 AM 40.8158 -74.8502 294° West 396 456 15,300 2,066 Climbing FlightAware ADS-B
Mon 11:19:14 AM 40.8384 -74.9185 294° West 399 459 16,400 1,962 Climbing FlightAware ADS-B
Mon 11:19:36 AM 40.8544 -74.9673 293° West 401 461 17,000 1,500 Climbing FlightAware ADS-B
Mon 11:19:42 AM 40.8576 -74.9803 288° West 400 460 17,100 1,385 Climbing FlightAware ADS-B
Mon 11:19:49 AM 40.8598 -74.9970 280° West 397 457 17,300 1,714 Climbing FlightAware ADS-B
Mon 11:19:56 AM 40.8605 -75.0137 273° West 396 456 17,500 1,500 Climbing FlightAware ADS-B
Mon 11:20:05 AM 40.8590 -75.0367 265° West 395 455 17,700 1,500 Climbing FlightAware ADS-B
Mon 11:20:36 AM 40.8479 -75.1086 258° West 400 460 18,500 1,574 Climbing FlightAware ADS-B
Mon 11:21:06 AM 40.8370 -75.1816 259° West 406 467 19,300 1,600 Climbing FlightAware ADS-B
Mon 11:21:36 AM 40.8260 -75.2559 259° West 409 471 20,100 1,574 Climbing FlightAware ADS-B
Mon 11:22:07 AM 40.8149 -75.3304 259° West 413 475 20,900 1,548 Climbing FlightAware ADS-B
Mon 11:22:38 AM 40.8033 -75.4073 259° West 415 478 21,700 1,475 Climbing FlightAware ADS-B
Mon 11:23:08 AM 40.7911 -75.4825 258° West 420 483 22,400 1,279 Climbing FlightAware ADS-B
Mon 11:23:39 AM 40.7785 -75.5597 258° West 425 489 23,000 1,182 Climbing FlightAware ADS-B
Mon 11:24:14 AM 40.7641 -75.6487 258° West 431 496 23,700 1,200 Climbing FlightAware ADS-B
Mon 11:24:44 AM 40.7514 -75.7269 258° West 435 501 24,300 1,219 Climbing FlightAware ADS-B
Mon 11:25:18 AM 40.7371 -75.8144 258° West 439 505 25,000 1,219 Climbing FlightAware ADS-B
Mon 11:25:48 AM 40.7241 -75.8941 258° West 442 509 25,600 1,279 Climbing FlightAware ADS-B
Mon 11:26:19 AM 40.7109 -75.9741 258° West 442 509 26,300 1,161 Climbing FlightAware ADS-B
Mon 11:26:50 AM 40.6971 -76.0571 258° West 443 510 26,800 1,254 Climbing FlightAware ADS-B
Mon 11:27:26 AM 40.6813 -76.1522 258° West 441 507 27,700 1,345 Climbing FlightAware ADS-B
Mon 11:27:48 AM 40.6731 -76.2105 260° West 444 511 28,100 1,241 Climbing FlightAware ADS-B
Mon 11:27:55 AM 40.6721 -76.2291 266° West 447 514 28,300 1,263 Climbing FlightAware ADS-B
Mon 11:28:07 AM 40.6722 -76.2614 270° West 451 519 28,500 1,043 Climbing FlightAware ADS-B
Mon 11:28:18 AM 40.6744 -76.2911 276° West 457 526 28,700 1,263 Climbing FlightAware ADS-B
Mon 11:28:26 AM 40.6773 -76.3128 280° West 460 529 28,900 1,077 Climbing FlightAware ADS-B
Mon 11:28:57 AM 40.6903 -76.3989 281° West 463 533 29,400 968 Climbing FlightAware ADS-B
Mon 11:29:28 AM 40.7031 -76.4850 281° West 465 535 29,900 984 Climbing FlightAware ADS-B
Mon 11:29:58 AM 40.7154 -76.5687 281° West 466 536 30,400 1,082 Climbing FlightAware ADS-B
Mon 11:30:29 AM 40.7276 -76.6530 281° West 462 532 31,000 1,343 Climbing FlightAware ADS-B
Mon 11:31:05 AM 40.7421 -76.7519 281° West 455 524 31,900 1,455 Climbing FlightAware ADS-B
Mon 11:31:35 AM 40.7539 -76.8337 281° West 450 518 32,600 1,279 Climbing FlightAware ADS-B
Mon 11:32:06 AM 40.7659 -76.9163 281° West 446 513 33,200 1,026 Climbing FlightAware ADS-B
Mon 11:32:51 AM 40.7820 -77.0290 281° West 445 512 33,900 565 Climbing FlightAware ADS-B
Mon 11:33:31 AM 40.7960 -77.1280 281° West 446 513 34,000 72 Climbing FlightAware ADS-B
Mon 11:34:14 AM 40.8130 -77.2460 281° West 447 514 34,000  Level FlightAware ADS-B
Mon 11:34:44 AM 40.8261 -77.3376 281° West 446 513 34,000  Level FlightAware ADS-B
Mon 11:35:34 AM 40.8430 -77.4610 280° West 444 511 34,000  Level FlightAware ADS-B
Mon 11:36:24 AM 40.8620 -77.5920 281° West 443 510 34,000  Level FlightAware ADS-B
Mon 11:37:04 AM 40.8770 -77.7010 280° West 441 507 34,000  Level FlightAware ADS-B
Mon 11:37:39 AM 40.8890 -77.7900 280° West 439 505 34,000  Level FlightAware ADS-B
Mon 11:38:19 AM 40.9030 -77.8940 280° West 437 503 34,000  Level FlightAware ADS-B
Mon 11:39:04 AM 40.9190 -78.0160 280° West 436 502 34,000  Level FlightAware ADS-B
Mon 11:39:39 AM 40.9300 -78.1040 279° West 435 501 34,000  Level FlightAware ADS-B
Mon 11:40:19 AM 40.9430 -78.2050 280° West 435 501 34,000  Level FlightAware ADS-B
Mon 11:40:59 AM 40.9560 -78.3120 279° West 439 505 34,000  Level FlightAware ADS-B
Mon 11:41:39 AM 40.9690 -78.4190 279° West 441 507 34,000  Level FlightAware ADS-B
Mon 11:42:14 AM 40.9800 -78.5140 279° West 441 507 34,000  Level FlightAware ADS-B
Mon 11:42:59 AM 40.9950 -78.6360 279° West 444 511 34,000  Level FlightAware ADS-B
Mon 11:43:39 AM 41.0070 -78.7430 278° West 445 512 34,000  Level FlightAware ADS-B
Mon 11:44:24 AM 41.0210 -78.8570 279° West 447 514 34,000  Level FlightAware ADS-B
Mon 11:45:04 AM 41.0340 -78.9720 279° West 448 516 34,000  Level FlightAware ADS-B
Mon 11:45:44 AM 41.0470 -79.0820 279° West 449 517 34,000  Level FlightAware ADS-B
Mon 11:46:29 AM 41.0610 -79.2060 279° West 451 519 34,000  Level FlightAware ADS-B
Mon 11:47:05 AM 41.0730 -79.3080 279° West 452 520 34,000  Level FlightAware ADS-B
Mon 11:47:42 AM 41.0840 -79.4060 279° West 455 524 34,000  Level FlightAware ADS-B
Mon 11:48:27 AM 41.0970 -79.5300 278° West 456 525 34,000  Level FlightAware ADS-B
Mon 11:49:07 AM 41.1090 -79.6360 279° West 458 527 34,000  Level FlightAware ADS-B
Mon 11:50:07 AM 41.1270 -79.8030 278° West 460 529 34,000  Level FlightAware ADS-B
Mon 11:50:42 AM 41.1380 -79.8990 279° West 461 531 34,000  Level FlightAware ADS-B
Mon 11:51:27 AM 41.1520 -80.0290 278° West 461 531 34,000  Level FlightAware ADS-B
Mon 11:52:07 AM 41.1630 -80.1380 278° West 461 531 34,000  Level FlightAware ADS-B
Mon 11:52:42 AM 41.1740 -80.2390 278° West 462 532 34,000  Level FlightAware ADS-B
Mon 11:53:27 AM 41.1870 -80.3680 278° West 463 533 34,000  Level FlightAware ADS-B
Mon 11:54:07 AM 41.1990 -80.4790 278° West 464 534 34,000  Level FlightAware ADS-B
Mon 11:54:42 AM 41.2090 -80.5770 278° West 464 534 34,000  Level FlightAware ADS-B
Mon 11:55:27 AM 41.2210 -80.7020 277° West 464 534 34,000  Level FlightAware ADS-B
Mon 11:56:12 AM 41.2340 -80.8270 278° West 463 533 34,000  Level FlightAware ADS-B
Mon 11:56:54 AM 41.2470 -80.9580 278° West 459 528 34,000  Level FlightAware ADS-B
Mon 11:57:38 AM 41.2590 -81.0820 277° West 457 526 34,000  Level FlightAware ADS-B
Mon 11:58:15 AM 41.2680 -81.1820 277° West 456 525 34,000  Level FlightAware ADS-B
Mon 11:58:59 AM 41.2800 -81.3040 277° West 454 522 34,000  Level FlightAware ADS-B
Mon 11:59:43 AM 41.2910 -81.4270 277° West 453 521 34,000  Level FlightAware ADS-B
Mon 12:00:23 PM 41.3020 -81.5360 278° West 453 521 34,000  Level FlightAware ADS-B
Mon 12:01:05 PM 41.3120 -81.6520 277° West 452 520 34,000  Level FlightAware ADS-B
Mon 12:01:47 PM 41.3230 -81.7680 277° West 452 520 34,000  Level FlightAware ADS-B
Mon 12:02:31 PM 41.3340 -81.8870 277° West 452 520 34,000  Level FlightAware ADS-B
Mon 12:03:13 PM 41.3440 -82.0040 277° West 452 520 34,000  Level FlightAware ADS-B
Mon 12:03:55 PM 41.3540 -82.1190 277° West 451 519 34,000  Level FlightAware ADS-B
Mon 12:04:33 PM 41.3620 -82.2220 276° West 447 514 34,000  Level FlightAware ADS-B
Mon 12:05:17 PM 41.3690 -82.3440 274° West 445 512 34,000  Level FlightAware ADS-B
Mon 12:05:59 PM 41.3750 -82.4500 274° West 445 512 34,000  Level FlightAware ADS-B
Mon 12:06:39 PM 41.3810 -82.5620 274° West 445 512 34,000  Level FlightAware ADS-B
Mon 12:07:20 PM 41.3880 -82.6790 275° West 447 514 34,000  Level FlightAware ADS-B
Mon 12:08:05 PM 41.3950 -82.7990 274° West 447 514 34,000  Level FlightAware ADS-B
Mon 12:08:49 PM 41.4010 -82.9250 274° West 449 517 34,000  Level FlightAware ADS-B
Mon 12:09:32 PM 41.4080 -83.0400 275° West 446 513 34,000  Level FlightAware ADS-B
Mon 12:10:11 PM 41.4130 -83.1470 274° West 443 510 34,000  Level FlightAware ADS-B
Mon 12:10:48 PM 41.4180 -83.2440 274° West 444 511 34,000  Level FlightAware ADS-B
Mon 12:11:32 PM 41.4240 -83.3620 274° West 449 517 34,000  Level FlightAware ADS-B
Mon 12:12:05 PM 41.4290 -83.4570 274° West 454 522 34,000  Level FlightAware ADS-B
Mon 12:12:49 PM 41.4350 -83.5810 274° West 460 529 34,000  Level FlightAware ADS-B
Mon 12:13:29 PM 41.4390 -83.6880 273° West 460 529 34,000  Level FlightAware ADS-B
Mon 12:14:05 PM 41.4440 -83.7890 274° West 460 529 34,000  Level FlightAware ADS-B
Mon 12:14:48 PM 41.4500 -83.9220 273° West 459 528 34,000  Level FlightAware ADS-B
Mon 12:15:23 PM 41.4550 -84.0180 274° West 458 527 34,000  Level FlightAware ADS-B
Mon 12:16:11 PM 41.4610 -84.1560 273° West 458 527 34,000  Level FlightAware ADS-B
Mon 12:17:07 PM 41.4670 -84.3100 273° West 458 527 34,000  Level FlightAware ADS-B
Mon 12:17:44 PM 41.4710 -84.4150 273° West 458 527 34,000  Level FlightAware ADS-B
Mon 12:18:33 PM 41.4770 -84.5500 273° West 459 528 34,000  Level FlightAware ADS-B
Mon 12:19:16 PM 41.4820 -84.6790 273° West 465 535 34,000  Level FlightAware ADS-B
Mon 12:20:10 PM 41.4870 -84.8290 273° West 472 543 34,000  Level FlightAware ADS-B
Mon 12:20:50 PM 41.4920 -84.9470 273° West 473 544 34,000  Level FlightAware ADS-B
Mon 12:21:32 PM 41.4960 -85.0680 273° West 474 545 34,000  Level FlightAware ADS-B
Mon 12:22:13 PM 41.5000 -85.1910 273° West 472 543 34,000  Level FlightAware ADS-B
Mon 12:22:53 PM 41.5040 -85.3090 273° West 471 542 34,000  Level FlightAware ADS-B
Mon 12:23:39 PM 41.5080 -85.4400 272° West 468 539 34,000  Level FlightAware ADS-B
Mon 12:24:22 PM 41.5120 -85.5610 273° West 467 537 34,000  Level FlightAware ADS-B
Mon 12:25:05 PM 41.5160 -85.6890 272° West 466 536 34,000  Level FlightAware ADS-B
Mon 12:25:43 PM 41.5190 -85.7930 272° West 465 535 34,000  Level FlightAware ADS-B
Mon 12:26:19 PM 41.5220 -85.9000 272° West 464 534 34,000  Level FlightAware ADS-B
Mon 12:27:02 PM 41.5250 -86.0210 272° West 463 533 34,000  Level FlightAware ADS-B
Mon 12:27:41 PM 41.5270 -86.1340 271° West 461 531 34,000  Level FlightAware ADS-B
Mon 12:28:24 PM 41.5290 -86.2520 271° West 459 528 34,000  Level FlightAware ADS-B
Mon 12:29:08 PM 41.5310 -86.3780 271° West 456 525 34,000  Level FlightAware ADS-B
Mon 12:29:50 PM 41.5330 -86.4930 271° West 453 521 34,000  Level FlightAware ADS-B
Mon 12:30:35 PM 41.5350 -86.6150 271° West 451 519 34,000  Level FlightAware ADS-B
Mon 12:31:13 PM 41.5360 -86.7210 271° West 449 517 34,000  Level FlightAware ADS-B
Mon 12:31:55 PM 41.5380 -86.8360 271° West 449 517 34,000  Level FlightAware ADS-B
Mon 12:32:39 PM 41.5390 -86.9600 271° West 448 516 34,000  Level FlightAware ADS-B
Mon 12:33:06 PM 41.5400 -87.0330 271° West 448 516 34,000  Level FlightAware ADS-B
Mon 12:33:51 PM 41.5410 -87.1580 271° West 449 517 34,000  Level FlightAware ADS-B
Mon 12:34:29 PM 41.5420 -87.2610 271° West 452 520 34,000  Level FlightAware ADS-B
Mon 12:35:04 PM 41.5430 -87.3640 271° West 453 521 34,000  Level FlightAware ADS-B
Mon 12:35:48 PM 41.5440 -87.4840 271° West 453 521 34,000  Level FlightAware ADS-B
Mon 12:36:17 PM 41.5450 -87.5640 271° West 453 521 34,000  Level FlightAware ADS-B
Mon 12:36:54 PM 41.5450 -87.6690 270° West 454 522 34,000  Level FlightAware ADS-B
Mon 12:37:41 PM 41.5460 -87.8010 271° West 454 522 34,000  Level FlightAware ADS-B
Mon 12:38:19 PM 41.5460 -87.9050 270° West 454 522 34,000  Level FlightAware ADS-B
Mon 12:39:06 PM 41.5460 -88.0390 270° West 454 522 34,000  Level FlightAware ADS-B
Mon 12:39:45 PM 41.5460 -88.1450 270° West 453 521 34,000  Level FlightAware ADS-B
Mon 12:40:41 PM 41.5460 -88.3020 270° West 453 521 34,000 247 Level FlightAware ADS-B
Mon 12:41:22 PM 41.5470 -88.4200 271° West 453 521 34,400 804 Climbing FlightAware ADS-B
Mon 12:42:18 PM 41.5480 -88.5750 271° West 449 517 35,300 875 Climbing FlightAware ADS-B
Mon 12:42:58 PM 41.5480 -88.6840 270° West 449 517 35,800 512 Climbing FlightAware ADS-B
Mon 12:43:40 PM 41.5480 -88.8020 270° West 451 519 36,000 148 Climbing FlightAware ADS-B
Mon 12:44:19 PM 41.5480 -88.9110 270° West 451 519 36,000  Level FlightAware ADS-B
Mon 12:44:52 PM 41.5480 -89.0000 270° West 452 520 36,000  Level FlightAware ADS-B
Mon 12:45:33 PM 41.5480 -89.1120 270° West 452 520 36,000  Level FlightAware ADS-B
Mon 12:46:17 PM 41.5480 -89.2320 270° West 452 520 36,000  Level FlightAware ADS-B
Mon 12:46:55 PM 41.5480 -89.3400 270° West 452 520 36,000  Level FlightAware ADS-B
Mon 12:47:28 PM 41.5480 -89.4290 270° West 452 520 36,000  Level FlightAware ADS-B
Mon 12:48:17 PM 41.5470 -89.5720 270° West 452 520 36,000  Level FlightAware ADS-B
Mon 12:48:53 PM 41.5470 -89.6670 270° West 451 519 36,000  Level FlightAware ADS-B
Mon 12:49:33 PM 41.5460 -89.7790 269° West 450 518 36,000  Level FlightAware ADS-B
Mon 12:50:15 PM 41.5450 -89.8950 269° West 450 518 36,000  Level FlightAware ADS-B
Mon 12:50:50 PM 41.5440 -89.9950 269° West 449 517 36,000  Level FlightAware ADS-B
Mon 12:51:32 PM 41.5430 -90.1090 269° West 449 517 36,000  Level FlightAware ADS-B
Mon 12:52:17 PM 41.5420 -90.2310 269° West 449 517 36,000  Level FlightAware ADS-B
Mon 12:52:57 PM 41.5410 -90.3410 269° West 449 517 36,000  Level FlightAware ADS-B
Mon 12:53:34 PM 41.5390 -90.4470 269° West 449 517 36,000  Level FlightAware ADS-B
Mon 12:54:23 PM 41.5380 -90.5840 269° West 450 518 36,000  Level FlightAware ADS-B
Mon 12:55:02 PM 41.5360 -90.6910 269° West 451 519 36,000  Level FlightAware ADS-B
Mon 12:55:43 PM 41.5340 -90.8060 269° West 452 520 36,000  Level FlightAware ADS-B
Mon 12:56:18 PM 41.5330 -90.9030 269° West 452 520 36,000  Level FlightAware ADS-B
Mon 12:57:03 PM 41.5310 -91.0300 269° West 453 521 36,000  Level FlightAware ADS-B
Mon 12:57:41 PM 41.5290 -91.1360 269° West 454 522 36,000  Level FlightAware ADS-B
Mon 12:58:25 PM 41.5270 -91.2580 269° West 456 525 36,000  Level FlightAware ADS-B
Mon 12:59:05 PM 41.5240 -91.3680 268° West 456 525 36,000  Level FlightAware ADS-B
Mon 12:59:42 PM 41.5220 -91.4650 268° West 457 526 36,000  Level FlightAware ADS-B
Mon 01:00:31 PM 41.5190 -91.6100 268° West 457 526 36,000  Level FlightAware ADS-B
Mon 01:01:04 PM 41.5160 -91.7020 268° West 456 525 36,000  Level FlightAware ADS-B
Mon 01:01:48 PM 41.5120 -91.8260 268° West 455 524 36,000  Level FlightAware ADS-B
Mon 01:02:31 PM 41.5080 -91.9440 267° West 454 522 36,000  Level FlightAware ADS-B
Mon 01:03:15 PM 41.5040 -92.0690 268° West 453 521 36,000  Level FlightAware ADS-B
Mon 01:04:00 PM 41.4990 -92.1930 267° West 452 520 36,000  Level FlightAware ADS-B
Mon 01:04:55 PM 41.4940 -92.3360 267° West 450 518 36,000  Level FlightAware ADS-B
Mon 01:05:35 PM 41.4890 -92.4580 267° West 449 517 36,000  Level FlightAware ADS-B
Mon 01:06:20 PM 41.4850 -92.5780 267° West 449 517 36,000  Level FlightAware ADS-B
Mon 01:07:03 PM 41.4800 -92.7030 267° West 450 518 36,000  Level FlightAware ADS-B
Mon 01:07:39 PM 41.4760 -92.8010 267° West 451 519 36,000  Level FlightAware ADS-B
Mon 01:08:21 PM 41.4710 -92.9190 267° West 453 521 36,000  Level FlightAware ADS-B
Mon 01:09:03 PM 41.4660 -93.0360 267° West 454 522 36,000  Level FlightAware ADS-B
Mon 01:09:41 PM 41.4610 -93.1420 266° West 455 524 36,000  Level FlightAware ADS-B
Mon 01:10:22 PM 41.4560 -93.2571 267° West 457 526 36,000  Level FlightAware ADS-B
Mon 01:10:52 PM 41.4521 -93.3415 266° West 457 526 36,000  Level FlightAware ADS-B
Mon 01:11:22 PM 41.4482 -93.4255 266° West 457 526 36,000  Level FlightAware ADS-B
Mon 01:11:53 PM 41.4442 -93.5120 266° West 456 525 36,000  Level FlightAware ADS-B
Mon 01:12:24 PM 41.4401 -93.5976 266° West 455 524 36,000  Level FlightAware ADS-B
Mon 01:12:45 PM 41.4366 -93.6567 266° West 455 524 36,000  Level FlightAware ADS-B
Mon 01:13:15 PM 41.4276 -93.7400 262° West 454 522 36,000  Level FlightAware ADS-B
Mon 01:13:45 PM 41.4185 -93.8232 262° West 452 520 36,000  Level FlightAware ADS-B
Mon 01:14:16 PM 41.4093 -93.9061 262° West 451 519 36,000  Level FlightAware ADS-B
Mon 01:14:46 PM 41.4002 -93.9885 262° West 450 518 36,000  Level FlightAware ADS-B
Mon 01:15:16 PM 41.3910 -94.0710 262° West 450 518 36,000  Level FlightAware ADS-B
Mon 01:15:46 PM 41.3818 -94.1533 262° West 449 517 36,000  Level FlightAware ADS-B
Mon 01:16:16 PM 41.3725 -94.2353 261° West 448 516 36,000  Level FlightAware ADS-B
Mon 01:16:47 PM 41.3629 -94.3181 261° West 448 516 36,000  Level FlightAware ADS-B
Mon 01:17:17 PM 41.3535 -94.4008 261° West 449 517 36,000  Level FlightAware ADS-B
Mon 01:17:47 PM 41.3442 -94.4828 261° West 449 517 36,000  Level FlightAware ADS-B
Mon 01:18:17 PM 41.3346 -94.5646 261° West 450 518 36,000  Level FlightAware ADS-B
Mon 01:18:48 PM 41.3246 -94.6492 261° West 450 518 36,000  Level FlightAware ADS-B
Mon 01:19:18 PM 41.3149 -94.7312 261° West 451 519 36,000  Level FlightAware ADS-B
Mon 01:19:48 PM 41.3051 -94.8143 261° West 454 522 36,000  Level FlightAware ADS-B
Mon 01:20:19 PM 41.2950 -94.8986 261° West 455 524 36,000  Level FlightAware ADS-B
Mon 01:20:49 PM 41.2847 -94.9825 261° West 457 526 36,000  Level FlightAware ADS-B
Mon 01:21:20 PM 41.2746 -95.0671 261° West 459 528 36,000  Level FlightAware ADS-B
Mon 01:21:50 PM 41.2645 -95.1516 261° West 461 531 36,000  Level FlightAware ADS-B
Mon 01:22:21 PM 41.2539 -95.2378 261° West 461 531 36,000  Level FlightAware ADS-B
Mon 01:22:51 PM 41.2436 -95.3212 261° West 462 532 36,000  Level FlightAware ADS-B
Mon 01:23:22 PM 41.2330 -95.4062 261° West 462 532 36,000  Level FlightAware ADS-B
Mon 01:23:53 PM 41.2219 -95.4953 261° West 462 532 36,000  Level FlightAware ADS-B
Mon 01:24:24 PM 41.2113 -95.5802 261° West 462 532 36,000  Level FlightAware ADS-B
Mon 01:24:54 PM 41.2007 -95.6640 260° West 462 532 36,000  Level FlightAware ADS-B
Mon 01:25:24 PM 41.1899 -95.7497 261° West 462 532 36,000  Level FlightAware ADS-B
Mon 01:25:55 PM 41.1790 -95.8348 260° West 461 531 36,000  Level FlightAware ADS-B
Mon 01:26:26 PM 41.1678 -95.9208 260° West 460 529 36,000  Level FlightAware ADS-B
Mon 01:26:56 PM 41.1571 -96.0042 260° West 459 528 36,000  Level FlightAware ADS-B
Mon 01:27:26 PM 41.1461 -96.0877 260° West 459 528 36,000  Level FlightAware ADS-B
Mon 01:27:57 PM 41.1351 -96.1712 260° West 458 527 36,000  Level FlightAware ADS-B
Mon 01:28:27 PM 41.1242 -96.2535 260° West 457 526 36,000  Level FlightAware ADS-B
Mon 01:28:57 PM 41.1134 -96.3359 260° West 456 525 36,000  Level FlightAware ADS-B
Mon 01:29:28 PM 41.1021 -96.4214 260° West 458 527 36,000  Level FlightAware ADS-B
Mon 01:29:58 PM 41.0911 -96.5043 260° West 460 529 36,000  Level FlightAware ADS-B
Mon 01:30:28 PM 41.0797 -96.5884 260° West 461 531 36,000  Level FlightAware ADS-B
Mon 01:30:59 PM 41.0680 -96.6750 260° West 462 532 36,000  Level FlightAware ADS-B
Mon 01:31:30 PM 41.0560 -96.7621 260° West 461 531 36,000  Level FlightAware ADS-B
Mon 01:32:01 PM 41.0445 -96.8451 260° West 461 531 36,000  Level FlightAware ADS-B
Mon 01:32:34 PM 41.0318 -96.9367 260° West 460 529 36,000  Level FlightAware ADS-B
Mon 01:33:04 PM 41.0202 -97.0206 260° West 460 529 36,000  Level FlightAware ADS-B
Mon 01:33:34 PM 41.0085 -97.1046 260° West 461 531 36,000  Level FlightAware ADS-B
Mon 01:34:04 PM 40.9967 -97.1877 259° West 461 531 36,000  Level FlightAware ADS-B
Mon 01:34:38 PM 40.9836 -97.2808 259° West 461 531 36,000  Level FlightAware ADS-B
Mon 01:35:08 PM 40.9719 -97.3639 259° West 460 529 36,000  Level FlightAware ADS-B
Mon 01:35:38 PM 40.9601 -97.4472 259° West 460 529 36,000  Level FlightAware ADS-B
Mon 01:36:09 PM 40.9481 -97.5310 259° West 460 529 36,000  Level FlightAware ADS-B
Mon 01:36:40 PM 40.9358 -97.6160 259° West 459 528 36,000  Level FlightAware ADS-B
Mon 01:37:10 PM 40.9238 -97.6987 259° West 456 525 36,000  Level FlightAware ADS-B
Mon 01:37:45 PM 40.9097 -97.7954 259° West 454 522 36,000  Level FlightAware ADS-B
Mon 01:38:16 PM 40.8972 -97.8795 259° West 453 521 36,000  Level FlightAware ADS-B
Mon 01:38:47 PM 40.8851 -97.9619 259° West 453 521 36,000  Level FlightAware ADS-B
Mon 01:39:38 PM 40.8647 -98.0994 259° West 453 521 36,000  Level FlightAware ADS-B
Mon 01:40:08 PM 40.8525 -98.1807 259° West 454 522 36,000  Level FlightAware ADS-B
Mon 01:40:38 PM 40.8403 -98.2626 259° West 455 524 36,000  Level FlightAware ADS-B
Mon 01:41:10 PM 40.8272 -98.3490 259° West 454 522 36,000  Level FlightAware ADS-B
Mon 01:41:40 PM 40.8146 -98.4323 259° West 455 524 36,000  Level FlightAware ADS-B
Mon 01:42:11 PM 40.8020 -98.5148 259° West 455 524 36,000  Level FlightAware ADS-B
Mon 01:42:41 PM 40.7894 -98.5967 259° West 455 524 36,000  Level FlightAware ADS-B
Mon 01:43:12 PM 40.7766 -98.6799 259° West 455 524 36,000  Level FlightAware ADS-B
Mon 01:43:56 PM 40.7580 -98.7994 258° West 454 522 36,000  Level FlightAware ADS-B
Mon 01:44:26 PM 40.7451 -98.8824 258° West 453 521 36,000  Level FlightAware ADS-B
Mon 01:44:57 PM 40.7324 -98.9637 258° West 453 521 36,000  Level FlightAware ADS-B
Mon 01:45:27 PM 40.7195 -99.0454 258° West 453 521 36,000  Level FlightAware ADS-B
Mon 01:45:57 PM 40.7064 -99.1275 258° West 454 522 36,000  Level FlightAware ADS-B
Mon 01:46:28 PM 40.6933 -99.2101 258° West 454 522 36,000  Level FlightAware ADS-B
Mon 01:47:43 PM 40.6606 -99.4138 258° West 455 524 36,000  Level FlightAware ADS-B
Mon 01:48:14 PM 40.6474 -99.4954 258° West 455 524 36,000  Level FlightAware ADS-B
Mon 01:48:45 PM 40.6335 -99.5808 258° West 455 524 36,000  Level FlightAware ADS-B
Mon 01:49:16 PM 40.6197 -99.6654 258° West 455 524 36,000  Level FlightAware ADS-B
Mon 01:49:47 PM 40.6063 -99.7470 258° West 455 524 36,000  Level FlightAware ADS-B
Mon 01:50:40 PM 40.5903 -99.8389 258° West 453 521 36,000  Level Denver Center
Mon 01:52:20 PM 40.5419 -100.1325 258° West 455 524 36,000  Level Minneapolis Center
Mon 01:57:56 PM 40.3792 -101.0750 258° West 466 536 36,000  Level FlightAware ADS-B
Mon 01:58:27 PM 40.3640 -101.1600 257° West 467 537 36,000  Level FlightAware ADS-B
Mon 01:58:57 PM 40.3492 -101.2430 257° West 468 539 36,000  Level FlightAware ADS-B
Mon 01:59:28 PM 40.3337 -101.3300 257° West 468 539 36,000  Level FlightAware ADS-B
Mon 01:59:58 PM 40.3188 -101.4130 257° West 468 539 36,000  Level FlightAware ADS-B
Mon 02:00:29 PM 40.3038 -101.4960 257° West 468 539 36,000  Level FlightAware ADS-B
Mon 02:01:00 PM 40.2881 -101.5830 257° West 468 539 36,000  Level FlightAware ADS-B
Mon 02:01:31 PM 40.2725 -101.6680 257° West 467 537 36,000  Level FlightAware ADS-B
Mon 02:02:04 PM 40.2561 -101.7580 257° West 467 537 36,000  Level FlightAware ADS-B
Mon 02:02:35 PM 40.2404 -101.8420 256° West 467 537 36,000  Level FlightAware ADS-B
Mon 02:03:06 PM 40.2248 -101.9270 257° West 467 537 36,000  Level FlightAware ADS-B
Mon 02:03:36 PM 40.2096 -102.0090 256° West 467 537 36,000  Level FlightAware ADS-B
Mon 02:04:06 PM 40.1943 -102.0910 256° West 467 537 36,000  Level FlightAware ADS-B
Mon 02:04:36 PM 40.1786 -102.1750 256° West 467 537 36,000  Level FlightAware ADS-B
Mon 02:05:07 PM 40.1629 -102.2590 256° West 467 537 36,000  Level FlightAware ADS-B
Mon 02:05:37 PM 40.1472 -102.3410 256° West 466 536 36,000  Level FlightAware ADS-B
Mon 02:06:08 PM 40.1312 -102.4250 256° West 465 535 36,000  Level FlightAware ADS-B
Mon 02:06:38 PM 40.1156 -102.5080 256° West 464 534 36,000  Level FlightAware ADS-B
Mon 02:07:10 PM 40.0992 -102.5920 256° West 462 532 36,000  Level FlightAware ADS-B
Mon 02:07:40 PM 40.0833 -102.6750 256° West 461 531 36,000  Level FlightAware ADS-B
Mon 02:08:11 PM 40.0677 -102.7560 256° West 460 529 36,000  Level FlightAware ADS-B
Mon 02:08:41 PM 40.0521 -102.8370 256° West 459 528 36,000  Level FlightAware ADS-B
Mon 02:09:12 PM 40.0357 -102.9210 256° West 458 527 36,000  Level FlightAware ADS-B
Mon 02:09:43 PM 40.0199 -103.0030 256° West 458 527 36,000  Level FlightAware ADS-B
Mon 02:10:13 PM 40.0041 -103.0830 256° West 461 531 36,000  Level FlightAware ADS-B
Mon 02:10:43 PM 39.9879 -103.1650 256° West 464 534 36,000  Level FlightAware ADS-B
Mon 02:11:14 PM 39.9712 -103.2490 255° West 466 536 36,000  Level FlightAware ADS-B
Mon 02:11:44 PM 39.9550 -103.3310 256° West 465 535 36,000  Level FlightAware ADS-B
Mon 02:12:15 PM 39.9388 -103.4120 255° West 464 534 36,000  Level FlightAware ADS-B
Mon 02:12:46 PM 39.9218 -103.4970 255° West 464 534 36,000  Level FlightAware ADS-B
Mon 02:13:17 PM 39.9053 -103.5790 255° West 465 535 36,000  Level FlightAware ADS-B
Mon 02:13:47 PM 39.8888 -103.6610 255° West 467 537 36,000  Level FlightAware ADS-B
Mon 02:14:17 PM 39.8722 -103.7430 255° West 468 539 36,000  Level FlightAware ADS-B
Mon 02:14:51 PM 39.8535 -103.8350 255° West 469 540 36,000  Level FlightAware ADS-B
Mon 02:15:21 PM 39.8367 -103.9170 255° West 469 540 36,000  Level FlightAware ADS-B
Mon 02:15:52 PM 39.8195 -104.0010 255° West 470 541 36,000  Level FlightAware ADS-B
Mon 02:16:22 PM 39.8026 -104.0830 255° West 471 542 36,000  Level FlightAware ADS-B
Mon 02:16:52 PM 39.7854 -104.1660 255° West 471 542 36,000  Level FlightAware ADS-B
Mon 02:17:23 PM 39.7681 -104.2500 255° West 471 542 36,000  Level FlightAware ADS-B
Mon 02:17:54 PM 39.7504 -104.3340 255° West 471 542 36,000  Level FlightAware ADS-B
Mon 02:18:24 PM 39.7333 -104.4160 255° West 471 542 36,000  Level FlightAware ADS-B
Mon 02:18:54 PM 39.7161 -104.4980 255° West 472 543 36,000  Level FlightAware ADS-B
Mon 02:19:25 PM 39.6987 -104.5810 255° West 471 542 36,000  Level FlightAware ADS-B
Mon 02:19:56 PM 39.6804 -104.6660 254° West 471 542 36,000  Level FlightAware ADS-B
Mon 02:20:26 PM 39.6621 -104.7480 254° West 471 542 36,000  Level FlightAware ADS-B
Mon 02:20:57 PM 39.6434 -104.8310 254° West 471 542 36,000  Level FlightAware ADS-B
Mon 02:21:28 PM 39.6248 -104.9140 254° West 471 542 36,000  Level FlightAware ADS-B
Mon 02:22:00 PM 39.6055 -105.0000 254° West 471 542 36,000  Level FlightAware ADS-B
Mon 02:22:35 PM 39.5839 -105.0960 254° West 472 543 36,000  Level FlightAware ADS-B
Mon 02:23:05 PM 39.5655 -105.1780 254° West 472 543 36,000  Level FlightAware ADS-B
Mon 02:23:42 PM 39.5429 -105.2770 254° West 472 543 36,000  Level FlightAware ADS-B
Mon 02:24:13 PM 39.5239 -105.3610 254° West 473 544 36,000  Level FlightAware ADS-B
Mon 02:24:44 PM 39.5044 -105.4460 253° West 473 544 36,000  Level FlightAware ADS-B
Mon 02:25:14 PM 39.4857 -105.5280 254° West 473 544 36,000  Level FlightAware ADS-B
Mon 02:25:46 PM 39.4661 -105.6130 253° West 475 547 36,000  Level FlightAware ADS-B
Mon 02:26:16 PM 39.4470 -105.6950 253° West 475 547 36,000  Level FlightAware ADS-B
Mon 02:26:52 PM 39.4246 -105.7920 253° West 475 547 36,000  Level FlightAware ADS-B
Mon 02:27:27 PM 39.4020 -105.8890 253° West 477 549 36,000  Level FlightAware ADS-B
Mon 02:27:58 PM 39.3824 -105.9720 253° West 477 549 36,000  Level FlightAware ADS-B
Mon 02:28:28 PM 39.3630 -106.0540 253° West 477 549 36,000  Level FlightAware ADS-B
Mon 02:28:58 PM 39.3437 -106.1360 253° West 475 547 36,000  Level FlightAware ADS-B
Mon 02:29:32 PM 39.3224 -106.2270 253° West 474 545 36,000  Level FlightAware ADS-B
Mon 02:30:04 PM 39.3015 -106.3140 253° West 471 542 36,000  Level FlightAware ADS-B
Mon 02:30:35 PM 39.2820 -106.3960 253° West 471 542 36,000  Level FlightAware ADS-B
Mon 02:31:05 PM 39.2627 -106.4770 253° West 471 542 36,000  Level FlightAware ADS-B
Mon 02:31:37 PM 39.2423 -106.5620 253° West 471 542 36,000  Level FlightAware ADS-B
Mon 02:32:07 PM 39.2227 -106.6430 253° West 471 542 36,000  Level FlightAware ADS-B
Mon 02:32:39 PM 39.2026 -106.7270 253° West 470 541 36,000  Level FlightAware ADS-B
Mon 02:33:36 PM 39.1670 -106.8740 253° West 468 539 36,000  Level FlightAware ADS-B
Mon 02:33:57 PM 39.1516 -106.9360 252° West 469 540 36,000  Level FlightAware ADS-B
Mon 02:34:30 PM 39.1302 -107.0240 253° West 471 542 36,000  Level FlightAware ADS-B
Mon 02:35:00 PM 39.1104 -107.1040 252° West 471 542 36,000  Level FlightAware ADS-B
Mon 02:35:33 PM 39.0892 -107.1900 252° West 470 541 36,000  Level FlightAware ADS-B
Mon 02:36:14 PM 39.0630 -107.2960 252° West 470 541 36,000  Level FlightAware ADS-B
Mon 02:37:01 PM 39.0340 -107.4130 252° West 469 540 36,000  Level FlightAware ADS-B
Mon 02:37:41 PM 39.0070 -107.5200 252° West 468 539 36,000  Level FlightAware ADS-B
Mon 02:38:13 PM 38.9850 -107.6080 252° West 467 537 36,000  Level FlightAware ADS-B
Mon 02:38:54 PM 38.9590 -107.7090 252° West 468 539 36,000  Level FlightAware ADS-B
Mon 02:39:34 PM 38.9310 -107.8240 253° West 465 535 36,000  Level FlightAware ADS-B
Mon 02:40:12 PM 38.9060 -107.9190 251° West 463 533 36,000  Level FlightAware ADS-B
Mon 02:41:01 PM 38.8730 -108.0520 252° West 463 533 36,000  Level FlightAware ADS-B
Mon 02:42:01 PM 38.8340 -108.2010 251° West 469 540 36,000  Level FlightAware ADS-B
Mon 02:42:36 PM 38.8080 -108.3020 252° West 471 542 36,000  Level FlightAware ADS-B
Mon 02:43:22 PM 38.7770 -108.4230 252° West 475 547 36,000  Level FlightAware ADS-B
Mon 02:44:05 PM 38.7490 -108.5310 252° West 475 547 36,000  Level FlightAware ADS-B
Mon 02:44:45 PM 38.7190 -108.6450 251° West 476 548 36,000  Level FlightAware ADS-B
Mon 02:45:27 PM 38.6900 -108.7560 252° West 476 548 36,000  Level FlightAware ADS-B
Mon 02:46:02 PM 38.6650 -108.8510 251° West 476 548 36,000  Level FlightAware ADS-B
Mon 02:46:47 PM 38.6340 -108.9690 251° West 474 545 36,000  Level FlightAware ADS-B
Mon 02:47:31 PM 38.6030 -109.0830 251° West 475 547 36,000  Level FlightAware ADS-B
Mon 02:48:06 PM 38.5790 -109.1730 251° West 474 545 36,000  Level FlightAware ADS-B
Mon 02:48:44 PM 38.5510 -109.2790 251° West 474 545 36,000  Level FlightAware ADS-B
Mon 02:49:31 PM 38.5170 -109.4050 251° West 471 542 36,000  Level FlightAware ADS-B
Mon 02:50:11 PM 38.4880 -109.5100 251° West 469 540 36,000  Level FlightAware ADS-B
Mon 02:50:53 PM 38.4590 -109.6160 251° West 467 537 36,000  Level FlightAware ADS-B
Mon 02:51:34 PM 38.4310 -109.7210 251° West 465 535 36,000  Level FlightAware ADS-B
Mon 02:52:14 PM 38.4010 -109.8300 251° West 466 536 36,000  Level FlightAware ADS-B
Mon 02:53:00 PM 38.3700 -109.9440 251° West 470 541 36,000  Level FlightAware ADS-B
Mon 02:53:40 PM 38.3390 -110.0540 250° West 469 540 36,000  Level FlightAware ADS-B
Mon 02:54:22 PM 38.3110 -110.1560 251° West 468 539 36,000  Level FlightAware ADS-B
Mon 02:55:15 PM 38.2720 -110.2970 251° West 467 537 36,000  Level FlightAware ADS-B
Mon 02:55:57 PM 38.2400 -110.4080 250° West 468 539 36,000  Level FlightAware ADS-B
Mon 02:56:37 PM 38.2130 -110.5040 250° West 468 539 36,000  Level FlightAware ADS-B
Mon 02:57:27 PM 38.1750 -110.6410 251° West 467 537 36,000  Level FlightAware ADS-B
Mon 02:58:08 PM 38.1400 -110.7380 245° Southwest 469 540 36,000  Level FlightAware ADS-B
Mon 02:58:44 PM 38.0980 -110.8250 238° Southwest 469 540 36,000  Level FlightAware ADS-B
Mon 02:59:24 PM 38.0540 -110.9120 237° Southwest 469 540 36,000  Level FlightAware ADS-B
Mon 03:00:04 PM 38.0150 -110.9920 238° Southwest 469 540 36,000  Level FlightAware ADS-B
Mon 03:00:41 PM 37.9790 -111.0650 238° Southwest 469 540 36,000  Level FlightAware ADS-B
Mon 03:01:30 PM 37.9310 -111.1620 238° Southwest 469 540 36,000  Level FlightAware ADS-B
Mon 03:02:07 PM 37.8950 -111.2360 238° Southwest 469 540 36,000  Level FlightAware ADS-B
Mon 03:02:45 PM 37.8580 -111.3110 238° Southwest 469 540 36,000  Level FlightAware ADS-B
Mon 03:03:31 PM 37.8130 -111.4020 238° Southwest 469 540 36,000  Level FlightAware ADS-B
Mon 03:04:08 PM 37.7770 -111.4750 238° Southwest 469 540 36,000  Level FlightAware ADS-B
Mon 03:04:55 PM 37.7310 -111.5680 238° Southwest 469 540 36,000  Level FlightAware ADS-B
Mon 03:05:32 PM 37.6950 -111.6420 238° Southwest 469 540 36,000  Level FlightAware ADS-B
Mon 03:06:21 PM 37.6470 -111.7380 238° Southwest 469 540 36,000  Level FlightAware ADS-B
Mon 03:06:55 PM 37.6140 -111.8050 238° Southwest 469 540 36,000  Level FlightAware ADS-B
Mon 03:07:44 PM 37.5660 -111.9020 238° Southwest 469 540 36,000  Level FlightAware ADS-B
Mon 03:08:18 PM 37.5320 -111.9690 237° Southwest 469 540 36,000  Level FlightAware ADS-B
Mon 03:09:07 PM 37.4850 -112.0660 239° Southwest 469 540 36,000  Level FlightAware ADS-B
Mon 03:11:43 PM 37.1930 -112.6070 236° Southwest 460 529 36,000  Level FlightAware ADS-B
Mon 03:12:21 PM 37.1430 -112.6860 232° Southwest 461 531 36,000  Level FlightAware ADS-B
Mon 03:12:59 PM 37.0910 -112.7660 231° Southwest 463 533 36,000  Level FlightAware ADS-B
Mon 03:13:39 PM 37.0370 -112.8490 231° Southwest 465 535 36,000  Level FlightAware ADS-B
Mon 03:14:19 PM 36.9820 -112.9340 231° Southwest 467 537 36,000  Level FlightAware ADS-B
Mon 03:14:57 PM 36.9310 -113.0120 231° Southwest 469 540 36,000  Level FlightAware ADS-B
Mon 03:15:41 PM 36.8720 -113.1050 232° Southwest 469 540 36,000  Level FlightAware ADS-B
Mon 03:16:21 PM 36.8190 -113.1860 231° Southwest 469 540 36,000  Level FlightAware ADS-B
Mon 03:16:59 PM 36.7650 -113.2690 231° Southwest 470 541 36,000  Level FlightAware ADS-B
Mon 03:17:41 PM 36.7070 -113.3570 231° Southwest 470 541 36,000  Level FlightAware ADS-B
Mon 03:18:25 PM 36.6460 -113.4500 231° Southwest 471 542 36,000  Level FlightAware ADS-B
Mon 03:19:08 PM 36.5870 -113.5400 231° Southwest 472 543 36,000  Level FlightAware ADS-B
Mon 03:19:52 PM 36.5260 -113.6320 230° Southwest 473 544 36,000  Level FlightAware ADS-B
Mon 03:20:26 PM 36.4800 -113.7010 230° Southwest 473 544 36,000  Level FlightAware ADS-B
Mon 03:21:16 PM 36.4100 -113.8070 231° Southwest 473 544 36,000  Level FlightAware ADS-B
Mon 03:21:53 PM 36.3570 -113.8860 230° Southwest 472 543 36,000  Level FlightAware ADS-B
Mon 03:22:39 PM 36.2950 -113.9800 231° Southwest 471 542 36,000  Level FlightAware ADS-B
Mon 03:23:21 PM 36.2350 -114.0700 230° Southwest 471 542 36,000  Level FlightAware ADS-B
Mon 03:23:59 PM 36.1830 -114.1470 230° Southwest 471 542 36,000  Level FlightAware ADS-B
Mon 03:24:41 PM 36.1240 -114.2340 230° Southwest 472 543 36,000  Level FlightAware ADS-B
Mon 03:25:25 PM 36.0620 -114.3260 230° Southwest 472 543 36,000  Level FlightAware ADS-B
Mon 03:26:09 PM 36.0020 -114.4160 231° Southwest 472 543 36,000  Level FlightAware ADS-B
Mon 03:26:51 PM 35.9420 -114.5040 230° Southwest 472 543 36,000  Level FlightAware ADS-B
Mon 03:27:32 PM 35.8850 -114.5880 230° Southwest 470 541 36,000  Level FlightAware ADS-B
Mon 03:28:02 PM 35.8430 -114.6510 231° Southwest 470 541 36,000  Level FlightAware ADS-B
Mon 03:28:50 PM 35.7770 -114.7480 230° Southwest 469 540 36,000  Level FlightAware ADS-B
Mon 03:29:30 PM 35.7210 -114.8290 230° Southwest 467 537 36,000  Level FlightAware ADS-B
Mon 03:30:02 PM 35.6750 -114.8950 229° Southwest 466 536 36,000  Level FlightAware ADS-B
Mon 03:30:48 PM 35.6120 -114.9880 230° Southwest 465 535 36,000  Level FlightAware ADS-B
Mon 03:31:28 PM 35.5560 -115.0690 230° Southwest 467 537 36,000  Level FlightAware ADS-B
Mon 03:32:14 PM 35.4920 -115.1620 230° Southwest 467 537 36,000  Level FlightAware ADS-B
Mon 03:32:56 PM 35.4350 -115.2440 230° Southwest 467 537 36,000  Level FlightAware ADS-B
Mon 03:33:34 PM 35.3810 -115.3230 230° Southwest 465 535 36,000  Level FlightAware ADS-B
Mon 03:34:19 PM 35.3330 -115.4250 240° Southwest 465 535 36,000  Level FlightAware ADS-B
Mon 03:34:52 PM 35.3020 -115.5050 245° Southwest 464 534 36,000  Level FlightAware ADS-B
Mon 03:35:34 PM 35.2480 -115.5920 233° Southwest 464 534 36,000  Level FlightAware ADS-B
Mon 03:36:16 PM 35.1880 -115.6730 228° Southwest 461 531 36,000 -385 Level FlightAware ADS-B
Mon 03:36:52 PM 35.1380 -115.7410 228° Southwest 455 524 35,500 -868 Descending FlightAware ADS-B
Mon 03:37:32 PM 35.0820 -115.8170 228° Southwest 456 525 34,900 -1,024 Descending FlightAware ADS-B
Mon 03:38:14 PM 35.0210 -115.8990 228° Southwest 453 521 34,100 -1,050 Descending FlightAware ADS-B
Mon 03:38:52 PM 34.9680 -115.9700 228° Southwest 448 516 33,500 -1,000 Descending FlightAware ADS-B
Mon 03:39:32 PM 34.9130 -116.0440 228° Southwest 444 511 32,800 -1,000 Descending FlightAware ADS-B
Mon 03:40:16 PM 34.8520 -116.1250 227° Southwest 440 506 32,100 -608 Descending FlightAware ADS-B
Mon 03:40:51 PM 34.8070 -116.1850 228° Southwest 437 503 32,000 -370 Descending FlightAware ADS-B
Mon 03:41:37 PM 34.7450 -116.2690 228° Southwest 438 504 31,600 -742 Descending FlightAware ADS-B
Mon 03:42:20 PM 34.6860 -116.3480 228° Southwest 432 497 30,900 -1,814 Descending FlightAware ADS-B
Mon 03:43:03 PM 34.6270 -116.4270 228° Southwest 433 498 29,000 -1,518 Descending FlightAware ADS-B
Mon 03:43:43 PM 34.5790 -116.4880 226° Southwest 445 512 28,800 -152 Descending FlightAware ADS-B
Mon 03:44:22 PM 34.5330 -116.5490 228° Southwest 445 512 28,800  Level FlightAware ADS-B
Mon 03:44:56 PM 34.4920 -116.6020 227° Southwest 445 512 28,800 -3,160 Level FlightAware ADS-B
Mon 03:46:33 PM 34.3530 -116.7880 228° Southwest 414 476 21,900 -3,134 Descending FlightAware ADS-B
Mon 03:47:10 PM 34.3150 -116.8370 227° Southwest 414 476 21,800 -2,027 Descending FlightAware ADS-B
Mon 03:47:47 PM 34.2430 -116.9070 219° Southwest 406 467 19,400 -2,830 Descending FlightAware ADS-B
Mon 03:48:03 PM 34.2340 -116.9120 205° Southwest 388 447 19,300 -444 Descending FlightAware ADS-B
Mon 03:48:41 PM 34.1820 -116.9410 205° Southwest 380 437 19,000 -277 Descending FlightAware ADS-B
Mon 03:49:08 PM 34.1340 -116.9940 222° Southwest 390 449 19,000  Level FlightAware ADS-B
Mon 03:49:48 PM 34.1140 -117.0780 254° West 393 452 19,000 -255 Level FlightAware ADS-B
Mon 03:50:42 PM 34.0850 -117.2080 255° West 376 433 18,600 -839 Descending FlightAware ADS-B
Mon 03:51:21 PM 34.0670 -117.2840 254° West 367 422 17,700 -1,575 Descending FlightAware ADS-B
Mon 03:52:02 PM 34.0500 -117.3630 255° West 358 412 16,500 -1,852 Descending FlightAware ADS-B
Mon 03:52:42 PM 34.0320 -117.4400 254° West 351 404 15,200 -1,935 Descending FlightAware ADS-B
Mon 03:53:35 PM 34.0210 -117.5390 262° West 343 395 13,500 -1,902 Descending FlightAware ADS-B
Mon 03:54:04 PM 34.0150 -117.5940 263° West 335 386 12,600 -1,737 Descending FlightAware ADS-B
Mon 03:54:51 PM 34.0070 -117.6790 264° West 322 371 11,300 -1,667 Descending FlightAware ADS-B
Mon 03:55:34 PM 34.0000 -117.7540 264° West 307 353 10,100 -1,739 Descending FlightAware ADS-B
Mon 03:56:00 PM 33.9960 -117.7990 264° West 302 348 9,300 -1,778 Descending FlightAware ADS-B
Mon 03:56:28 PM 33.9910 -117.8450 263° West 302 348 8,500 -1,607 Descending FlightAware ADS-B
Mon 03:56:56 PM 33.9870 -117.8920 264° West 291 335 7,800 -1,421 Descending FlightAware ADS-B
Mon 03:57:06 PM 33.9850 -117.9060 260° West 289 333 7,600 -1,317 Descending FlightAware ADS-B
Mon 03:57:37 PM 33.9810 -117.9550 264° West 280 322 6,900 -1,377 Descending FlightAware ADS-B
Mon 03:58:07 PM 33.9760 -118.0000 262° West 270 311 6,200 -1,418 Descending FlightAware ADS-B
Mon 03:58:32 PM 33.9720 -118.0380 263° West 264 304 5,600 -1,418 Descending FlightAware ADS-B
Mon 03:59:02 PM 33.9680 -118.0790 263° West 259 298 4,900 -1,400 Descending FlightAware ADS-B
Mon 03:59:32 PM 33.9640 -118.1190 263° West 253 291 4,200 -1,320 Descending FlightAware ADS-B
Mon 03:59:52 PM 33.9610 -118.1500 263° West 247 284 3,800 -1,200 Descending FlightAware ADS-B
Mon 04:00:17 PM 33.9570 -118.1840 262° West 233 268 3,300 -1,200 Descending FlightAware ADS-B
Mon 04:00:42 PM 33.9550 -118.2120 265° West 207 238 2,800 -1,067 Descending FlightAware ADS-B
Mon 04:01:02 PM 33.9520 -118.2350 261° West 188 216 2,500 -1,067 Descending FlightAware ADS-B
Mon 04:01:27 PM 33.9500 -118.2610 265° West 169 194 2,000 -1,029 Descending FlightAware ADS-B
Mon 04:01:37 PM 33.9490 -118.2700 262° West 163 188 1,900 -667 Descending FlightAware ADS-B
Mon 04:02:12 PM 33.9460 -118.2970 262° West 151 174 1,500 -711 Descending FlightAware ADS-B
Mon 04:02:53 PM 33.9420 -118.3310 262° West 152 175 1,000 -857 Descending FlightAware ADS-B
Mon 04:03:22 PM 33.9400 -118.3590 265° West 168 193 500 -778 Descending FlightAware ADS-B
Mon 04:03:47 PM 33.9380 -118.3760 262° West 164 189 300 -316 Descending FlightAware ADS-B
Mon 04:04:19 PM 33.9350 -118.4010 262° West 164 189 200 -188 Descending FlightAware ADS-B

Login

Don't have an account? Register now (free) for customized features, flight alerts, and more!